Time;durP1;ratioP1;P1;durP2;ratioP2;P2;SDS_P1;SDS_P2;PMS_P1;PMS_P2;Temp;Humidity;BMP_temperature;BMP_pressure;BME280_temperature;BME280_humidity;BME280_pressure;Samples;Min_cycle;Max_cycle;Signal;HPM_P1;HPM_P2
2022/12/30 00:01:00;;;;;;;5.23;2.40;;;;;;;;;;5043529;28;20234;-82
2022/12/30 00:03:27;;;;;;;8.60;2.50;;;;;;;;;;5031523;28;20206;-82
2022/12/30 00:05:54;;;;;;;7.57;2.50;;;;;;;;;;5030742;28;20230;-82
2022/12/30 00:11:07;;;;;;;4.77;2.70;;;;;;;;;;5030894;28;20304;-81
2022/12/30 00:33:09;;;;;;;6.17;2.67;;;;;;;;;;5034756;28;20222;-82
2022/12/30 00:35:37;;;;;;;4.27;2.60;;;;;;;;;;5034634;28;20226;-81
2022/12/30 00:38:04;;;;;;;4.83;2.07;;;;;;;;;;5034401;28;20678;-82
2022/12/30 00:40:32;;;;;;;12.27;2.83;;;;;;;;;;5033986;28;20234;-82
2022/12/30 00:43:07;;;;;;;7.03;2.60;;;;;;;;;;5034311;28;20253;-82
2022/12/30 00:45:35;;;;;;;6.90;2.40;;;;;;;;;;5036144;28;20275;-81
2022/12/30 00:56:18;;;;;;;6.73;2.47;;;;;;;;;;5034002;28;20717;-81
2022/12/30 00:58:45;;;;;;;8.83;2.80;;;;;;;;;;5054164;28;20206;-81
2022/12/30 01:01:12;;;;;;;4.30;2.40;;;;;;;;;;5053549;28;20252;-81
2022/12/30 01:03:39;;;;;;;5.10;2.70;;;;;;;;;;5054196;28;20704;-81
2022/12/30 01:06:07;;;;;;;6.57;2.67;;;;;;;;;;5053597;28;20287;-81
2022/12/30 01:08:34;;;;;;;5.60;2.80;;;;;;;;;;5053734;28;20653;-81
2022/12/30 01:11:05;;;;;;;5.17;2.37;;;;;;;;;;5053507;28;20234;-81
2022/12/30 01:13:34;;;;;;;4.63;2.17;;;;;;;;;;5054159;28;20205;-82
2022/12/30 01:16:07;;;;;;;9.13;2.93;;;;;;;;;;5053518;28;20230;-81
2022/12/30 01:18:34;;;;;;;5.40;2.40;;;;;;;;;;5052526;28;20225;-81
2022/12/30 01:21:01;;;;;;;6.03;2.73;;;;;;;;;;5053120;28;20241;-81
2022/12/30 01:23:28;;;;;;;3.00;2.10;;;;;;;;;;5054068;28;20210;-81
2022/12/30 01:25:55;;;;;;;7.03;2.47;;;;;;;;;;5053256;28;20721;-81
2022/12/30 01:28:22;;;;;;;5.63;2.67;;;;;;;;;;5053282;28;20202;-81
2022/12/30 01:30:51;;;;;;;6.80;2.80;;;;;;;;;;5033492;28;20242;-81
2022/12/30 01:33:18;;;;;;;9.07;2.50;;;;;;;;;;5033857;28;20214;-81
2022/12/30 01:35:45;;;;;;;5.90;2.70;;;;;;;;;;5033143;28;20226;-81
2022/12/30 01:38:12;;;;;;;4.10;2.37;;;;;;;;;;5033633;28;20218;-81
2022/12/30 01:40:40;;;;;;;5.93;3.00;;;;;;;;;;5032918;28;20308;-81
2022/12/30 01:43:10;;;;;;;3.67;2.37;;;;;;;;;;5033794;28;20206;-81
2022/12/30 01:45:37;;;;;;;4.43;2.53;;;;;;;;;;5033114;28;20242;-81
2022/12/30 01:48:08;;;;;;;5.40;2.93;;;;;;;;;;5033690;28;20210;-81
2022/12/30 01:50:39;;;;;;;2.40;2.07;;;;;;;;;;5033115;28;20230;-81
2022/12/30 01:53:08;;;;;;;7.03;2.30;;;;;;;;;;5033309;28;20994;-81
2022/12/30 01:55:37;;;;;;;4.00;2.70;;;;;;;;;;5033069;28;20230;-81
2022/12/30 01:58:06;;;;;;;2.80;2.20;;;;;;;;;;5033029;28;20257;-81
2022/12/30 02:00:33;;;;;;;6.10;2.87;;;;;;;;;;5032708;28;20241;-81
2022/12/30 02:03:00;;;;;;;4.23;2.30;;;;;;;;;;5029283;28;20285;-81
2022/12/30 02:05:30;;;;;;;9.10;2.47;;;;;;;;;;5027752;28;20292;-81
2022/12/30 02:08:01;;;;;;;9.47;2.70;;;;;;;;;;5032700;28;20210;-81
2022/12/30 02:10:28;;;;;;;3.80;2.40;;;;;;;;;;5039592;28;20242;-81
2022/12/30 02:12:55;;;;;;;7.40;2.77;;;;;;;;;;5032947;28;20215;-81
2022/12/30 02:15:25;;;;;;;8.33;2.80;;;;;;;;;;5044005;28;20691;-81
2022/12/30 02:17:58;;;;;;;4.50;2.30;;;;;;;;;;5052714;28;20213;-81
2022/12/30 02:20:39;;;;;;;6.67;2.30;;;;;;;;;;5052201;28;20291;-81
2022/12/30 02:23:25;;;;;;;4.97;2.60;;;;;;;;;;5052916;28;20210;-82
2022/12/30 02:26:00;;;;;;;6.00;2.63;;;;;;;;;;5036460;28;20284;-81
2022/12/30 02:28:42;;;;;;;4.70;2.80;;;;;;;;;;5034458;28;20480;-82
2022/12/30 02:31:21;;;;;;;3.10;2.20;;;;;;;;;;5046768;28;20243;-82
2022/12/30 02:33:53;;;;;;;9.30;2.93;;;;;;;;;;5046166;28;20241;-82
2022/12/30 02:36:22;;;;;;;7.87;2.77;;;;;;;;;;5033020;28;20243;-82
2022/12/30 02:38:52;;;;;;;5.93;2.60;;;;;;;;;;5031534;28;20214;-81
2022/12/30 02:46:56;;;;;;;4.97;2.73;;;;;;;;;;5040129;28;20229;-81
2022/12/30 02:49:23;;;;;;;5.53;2.50;;;;;;;;;;5052055;28;20226;-81
2022/12/30 02:54:36;;;;;;;6.20;2.47;;;;;;;;;;5052123;28;20181;-81
2022/12/30 02:57:03;;;;;;;10.60;2.93;;;;;;;;;;5034333;28;20238;-81
2022/12/30 03:05:22;;;;;;;7.07;3.20;;;;;;;;;;5020172;28;20213;-81
2022/12/30 03:07:56;;;;;;;6.47;2.83;;;;;;;;;;5031829;28;20264;-81
2022/12/30 03:13:15;;;;;;;7.03;2.73;;;;;;;;;;5031724;28;20272;-82
2022/12/30 03:15:45;;;;;;;9.03;2.63;;;;;;;;;;5031937;28;20281;-81
2022/12/30 03:18:15;;;;;;;7.93;2.70;;;;;;;;;;5031514;28;20206;-82
2022/12/30 03:20:43;;;;;;;13.63;3.33;;;;;;;;;;5031273;28;20580;-81
2022/12/30 03:28:53;;;;;;;8.10;2.70;;;;;;;;;;5018338;28;20735;-81
2022/12/30 03:31:20;;;;;;;7.93;2.77;;;;;;;;;;5031090;28;20656;-81
2022/12/30 03:33:48;;;;;;;8.40;3.07;;;;;;;;;;5031631;28;20211;-81
2022/12/30 03:36:18;;;;;;;8.10;3.07;;;;;;;;;;5031150;28;20234;-81
2022/12/30 03:38:47;;;;;;;10.30;3.93;;;;;;;;;;5031506;28;20214;-82
2022/12/30 03:41:15;;;;;;;6.17;2.80;;;;;;;;;;5049529;28;20291;-81
2022/12/30 03:43:42;;;;;;;9.63;2.77;;;;;;;;;;5051868;28;20256;-81
2022/12/30 03:46:09;;;;;;;10.80;3.07;;;;;;;;;;5050987;28;20268;-81
2022/12/30 03:48:36;;;;;;;2.80;2.53;;;;;;;;;;5051096;28;20629;-81
2022/12/30 03:51:05;;;;;;;6.43;2.63;;;;;;;;;;5042651;28;20238;-81
2022/12/30 03:53:32;;;;;;;11.03;2.80;;;;;;;;;;5049326;28;20613;-81
2022/12/30 03:55:59;;;;;;;5.67;2.40;;;;;;;;;;5035283;28;20230;-81
2022/12/30 03:58:26;;;;;;;8.20;2.93;;;;;;;;;;5035405;28;20229;-81
2022/12/30 04:00:53;;;;;;;6.03;2.67;;;;;;;;;;5035003;28;20234;-81
2022/12/30 04:03:20;;;;;;;13.33;2.63;;;;;;;;;;5035673;28;20215;-81
2022/12/30 04:05:47;;;;;;;5.47;2.47;;;;;;;;;;5034966;28;20244;-81
2022/12/30 04:08:15;;;;;;;10.70;2.60;;;;;;;;;;5035303;28;20222;-81
2022/12/30 04:10:42;;;;;;;9.73;3.00;;;;;;;;;;5034786;28;20235;-81
2022/12/30 04:13:09;;;;;;;6.23;2.90;;;;;;;;;;5035491;28;20207;-81
2022/12/30 04:15:36;;;;;;;10.13;3.00;;;;;;;;;;5054194;28;20233;-81
2022/12/30 04:18:03;;;;;;;6.30;2.83;;;;;;;;;;5055150;28;20213;-81
2022/12/30 04:20:30;;;;;;;5.83;2.67;;;;;;;;;;5054399;28;20838;-81
2022/12/30 04:22:58;;;;;;;5.30;2.70;;;;;;;;;;5055219;28;20206;-81
2022/12/30 04:25:26;;;;;;;4.93;2.57;;;;;;;;;;5041406;28;21024;-81
2022/12/30 04:27:53;;;;;;;3.93;2.47;;;;;;;;;;5035041;28;20211;-81
2022/12/30 04:30:21;;;;;;;9.67;3.17;;;;;;;;;;5035804;28;20288;-81
2022/12/30 04:32:48;;;;;;;8.03;2.60;;;;;;;;;;5034902;28;20209;-81
2022/12/30 04:35:15;;;;;;;4.30;2.50;;;;;;;;;;5034562;28;20268;-80
2022/12/30 04:37:42;;;;;;;8.77;3.83;;;;;;;;;;5034945;28;20217;-81
2022/12/30 04:40:09;;;;;;;10.90;4.00;;;;;;;;;;5044254;28;20233;-80
2022/12/30 04:42:38;;;;;;;10.63;4.37;;;;;;;;;;5054608;28;20291;-81
2022/12/30 04:45:05;;;;;;;15.87;3.90;;;;;;;;;;5053945;28;20217;-80
2022/12/30 04:47:32;;;;;;;10.47;3.30;;;;;;;;;;5054943;28;20213;-81
2022/12/30 04:49:59;;;;;;;5.00;2.43;;;;;;;;;;5045687;28;20218;-81
2022/12/30 04:52:26;;;;;;;10.63;2.90;;;;;;;;;;5033941;28;20660;-81
2022/12/30 04:54:53;;;;;;;8.53;2.57;;;;;;;;;;5042996;28;20194;-81
2022/12/30 04:57:20;;;;;;;6.87;2.93;;;;;;;;;;5053740;28;20238;-81
2022/12/30 04:59:48;;;;;;;12.07;3.10;;;;;;;;;;5053846;28;20268;-81
2022/12/30 05:02:15;;;;;;;7.47;2.97;;;;;;;;;;5053163;28;20234;-81
2022/12/30 05:04:42;;;;;;;6.00;2.60;;;;;;;;;;5054146;28;20674;-81
2022/12/30 05:07:09;;;;;;;5.50;2.60;;;;;;;;;;5053539;28;20241;-81
2022/12/30 05:09:36;;;;;;;8.33;2.40;;;;;;;;;;5048305;28;20223;-81
2022/12/30 05:12:03;;;;;;;8.27;2.83;;;;;;;;;;5033780;28;20234;-81
2022/12/30 05:14:30;;;;;;;10.20;2.73;;;;;;;;;;5034331;28;20224;-81
2022/12/30 05:16:59;;;;;;;7.83;2.87;;;;;;;;;;5033604;28;20729;-80
2022/12/30 05:19:26;;;;;;;9.73;2.70;;;;;;;;;;5037795;28;20225;-80
2022/12/30 05:21:53;;;;;;;9.57;2.70;;;;;;;;;;5053253;28;20229;-81
2022/12/30 05:27:05;;;;;;;7.77;3.43;;;;;;;;;;5053246;28;20316;-80
2022/12/30 05:29:32;;;;;;;10.63;3.03;;;;;;;;;;5043311;28;20222;-81
2022/12/30 05:32:00;;;;;;;8.03;3.13;;;;;;;;;;5053292;28;20229;-81
2022/12/30 05:34:28;;;;;;;6.40;2.77;;;;;;;;;;5053843;28;20209;-81
2022/12/30 05:36:55;;;;;;;8.70;4.10;;;;;;;;;;5053126;28;20287;-80
2022/12/30 05:39:22;;;;;;;7.13;2.83;;;;;;;;;;5041710;28;20599;-80
2022/12/30 05:41:49;;;;;;;9.43;3.27;;;;;;;;;;5033083;28;20241;-80
2022/12/30 05:44:16;;;;;;;4.67;2.87;;;;;;;;;;5033828;28;20202;-81
2022/12/30 05:46:43;;;;;;;12.33;3.00;;;;;;;;;;5037348;28;20722;-80
2022/12/30 05:49:11;;;;;;;7.23;2.90;;;;;;;;;;5033367;28;20230;-80
2022/12/30 05:51:38;;;;;;;7.70;3.20;;;;;;;;;;5032899;28;20663;-80
2022/12/30 05:54:05;;;;;;;11.10;3.30;;;;;;;;;;5033560;28;20268;-81
2022/12/30 05:56:32;;;;;;;10.23;4.03;;;;;;;;;;5049758;28;20263;-80
2022/12/30 05:58:59;;;;;;;6.23;2.83;;;;;;;;;;5053114;28;20210;-80
2022/12/30 06:01:26;;;;;;;6.43;2.50;;;;;;;;;;5052622;28;20234;-80
2022/12/30 06:03:55;;;;;;;7.73;2.87;;;;;;;;;;5053272;28;20210;-80
2022/12/30 06:06:24;;;;;;;7.70;2.70;;;;;;;;;;5052565;28;20340;-80
2022/12/30 06:08:51;;;;;;;7.53;3.20;;;;;;;;;;5052723;28;20214;-80
2022/12/30 06:11:18;;;;;;;7.47;2.90;;;;;;;;;;5052541;28;20230;-80
2022/12/30 06:13:45;;;;;;;7.67;3.17;;;;;;;;;;5051509;28;20210;-79
2022/12/30 06:16:12;;;;;;;6.60;3.23;;;;;;;;;;5052520;28;20233;-78
2022/12/30 06:18:39;;;;;;;13.97;3.23;;;;;;;;;;5052399;28;20206;-79
2022/12/30 06:21:06;;;;;;;8.43;2.93;;;;;;;;;;5051935;28;20233;-78
2022/12/30 06:23:34;;;;;;;6.20;3.10;;;;;;;;;;5051487;28;20206;-78
2022/12/30 06:26:02;;;;;;;4.03;2.97;;;;;;;;;;5052087;28;20230;-78
2022/12/30 06:28:30;;;;;;;7.37;3.03;;;;;;;;;;5052487;28;20232;-79
2022/12/30 06:30:57;;;;;;;8.47;3.07;;;;;;;;;;5052181;28;20230;-79
2022/12/30 06:33:24;;;;;;;5.33;2.80;;;;;;;;;;5051382;28;20537;-79
2022/12/30 06:35:52;;;;;;;9.70;3.43;;;;;;;;;;5052121;28;20233;-79
2022/12/30 06:38:19;;;;;;;8.20;4.00;;;;;;;;;;5052135;28;20287;-79
2022/12/30 06:40:48;;;;;;;7.93;3.57;;;;;;;;;;5041787;28;20706;-79
2022/12/30 06:43:15;;;;;;;11.97;3.50;;;;;;;;;;5032134;28;20249;-79
2022/12/30 06:45:43;;;;;;;13.70;4.90;;;;;;;;;;5032308;28;20237;-80
2022/12/30 06:48:10;;;;;;;12.03;7.00;;;;;;;;;;5034630;28;20210;-79
2022/12/30 06:50:37;;;;;;;18.17;8.17;;;;;;;;;;5039175;28;20249;-80
2022/12/30 06:53:04;;;;;;;19.40;10.63;;;;;;;;;;5048916;28;20190;-79
2022/12/30 06:55:31;;;;;;;10.13;3.80;;;;;;;;;;5053234;28;20245;-79
2022/12/30 06:58:00;;;;;;;8.90;3.00;;;;;;;;;;5045074;28;20210;-79
2022/12/30 07:00:27;;;;;;;7.73;4.13;;;;;;;;;;5032180;28;20233;-78
2022/12/30 07:02:54;;;;;;;13.00;3.93;;;;;;;;;;5040401;28;20214;-79
2022/12/30 07:05:21;;;;;;;9.70;3.23;;;;;;;;;;5051467;28;20230;-79
2022/12/30 07:07:48;;;;;;;8.53;2.77;;;;;;;;;;5051627;28;20624;-79
2022/12/30 07:10:15;;;;;;;7.13;3.30;;;;;;;;;;5049022;28;20234;-78
2022/12/30 07:12:42;;;;;;;6.30;3.07;;;;;;;;;;5031974;28;20249;-79
2022/12/30 07:15:11;;;;;;;7.87;3.30;;;;;;;;;;5031581;28;20207;-78
2022/12/30 07:17:38;;;;;;;8.70;3.07;;;;;;;;;;5032012;28;20211;-78
2022/12/30 07:20:06;;;;;;;6.50;3.27;;;;;;;;;;5048190;28;20226;-78
2022/12/30 07:22:33;;;;;;;9.27;2.90;;;;;;;;;;5051619;28;20328;-78
2022/12/30 07:25:00;;;;;;;13.00;3.43;;;;;;;;;;5050231;28;20559;-78
2022/12/30 07:27:27;;;;;;;7.60;2.93;;;;;;;;;;5051067;28;20229;-78
2022/12/30 07:29:54;;;;;;;6.00;3.30;;;;;;;;;;5051528;28;20610;-78
2022/12/30 07:32:22;;;;;;;8.50;3.47;;;;;;;;;;5051091;28;20607;-79
2022/12/30 07:34:49;;;;;;;6.90;3.13;;;;;;;;;;5051727;28;20217;-79
2022/12/30 07:37:16;;;;;;;6.77;3.03;;;;;;;;;;5051053;28;20260;-79
2022/12/30 07:39:43;;;;;;;7.47;2.87;;;;;;;;;;5051207;28;20237;-79
2022/12/30 07:42:10;;;;;;;13.10;3.10;;;;;;;;;;5050717;28;20229;-79
2022/12/30 07:44:38;;;;;;;8.93;2.90;;;;;;;;;;5051817;28;20205;-79
2022/12/30 07:47:05;;;;;;;4.87;3.60;;;;;;;;;;5051056;28;20672;-80
2022/12/30 07:49:34;;;;;;;5.10;3.90;;;;;;;;;;5051258;28;20226;-80
2022/12/30 07:52:01;;;;;;;11.77;3.73;;;;;;;;;;5044910;28;20234;-79
2022/12/30 07:54:29;;;;;;;8.00;3.30;;;;;;;;;;5031833;28;20210;-82
2022/12/30 07:56:57;;;;;;;9.83;4.03;;;;;;;;;;5031989;28;20234;-81
2022/12/30 07:59:24;;;;;;;8.37;5.00;;;;;;;;;;5040289;28;20223;-81
2022/12/30 08:01:51;;;;;;;13.80;7.57;;;;;;;;;;5046628;28;20234;-81
2022/12/30 08:04:18;;;;;;;13.63;6.67;;;;;;;;;;5042101;28;20203;-81
2022/12/30 08:06:46;;;;;;;13.57;7.27;;;;;;;;;;5031446;28;20238;-80
2022/12/30 08:09:13;;;;;;;10.87;4.50;;;;;;;;;;5031113;28;20768;-80
2022/12/30 08:11:40;;;;;;;8.63;5.60;;;;;;;;;;5031138;28;20235;-80
2022/12/30 08:14:07;;;;;;;11.73;4.53;;;;;;;;;;5031251;28;20207;-81
2022/12/30 08:16:34;;;;;;;9.83;5.27;;;;;;;;;;5031384;28;20230;-81
2022/12/30 08:19:01;;;;;;;7.63;5.23;;;;;;;;;;5031100;28;20212;-85
2022/12/30 08:21:28;;;;;;;10.30;4.20;;;;;;;;;;5041030;28;20335;-80
2022/12/30 08:23:56;;;;;;;13.43;5.30;;;;;;;;;;5050808;28;20225;-80
2022/12/30 08:26:24;;;;;;;10.40;4.00;;;;;;;;;;5047528;28;20280;-79
2022/12/30 08:28:51;;;;;;;15.90;9.43;;;;;;;;;;5031112;28;20215;-80
2022/12/30 08:31:20;;;;;;;9.13;5.10;;;;;;;;;;5040022;28;20295;-80
2022/12/30 08:33:47;;;;;;;7.57;4.37;;;;;;;;;;5051056;28;20267;-79
2022/12/30 08:36:14;;;;;;;10.27;5.20;;;;;;;;;;5035644;28;20255;-79
2022/12/30 08:38:44;;;;;;;11.00;4.83;;;;;;;;;;5037388;28;20198;-80
2022/12/30 08:41:14;;;;;;;9.70;3.80;;;;;;;;;;5052518;28;20378;-81
2022/12/30 08:43:41;;;;;;;12.27;5.53;;;;;;;;;;5052204;28;20222;-81
2022/12/30 08:46:08;;;;;;;15.07;7.00;;;;;;;;;;5053841;28;20264;-80
2022/12/30 08:48:35;;;;;;;12.37;6.33;;;;;;;;;;5040488;28;20203;-80
2022/12/30 08:51:02;;;;;;;8.20;5.60;;;;;;;;;;5033900;28;20241;-80
2022/12/30 08:53:29;;;;;;;15.43;7.20;;;;;;;;;;5034291;28;20202;-79
2022/12/30 08:56:01;;;;;;;12.27;5.60;;;;;;;;;;5033908;28;20281;-79
2022/12/30 08:58:30;;;;;;;11.33;6.13;;;;;;;;;;5044522;28;20251;-81
2022/12/30 09:00:57;;;;;;;13.80;6.53;;;;;;;;;;5037927;28;20694;-81
2022/12/30 09:03:24;;;;;;;9.10;4.93;;;;;;;;;;5049247;28;20283;-81
2022/12/30 09:05:52;;;;;;;11.50;6.27;;;;;;;;;;5053363;28;20226;-80
2022/12/30 09:08:19;;;;;;;15.27;6.10;;;;;;;;;;5042325;28;20238;-81
2022/12/30 09:10:47;;;;;;;9.03;4.40;;;;;;;;;;5047522;28;20292;-80
2022/12/30 09:13:14;;;;;;;5.77;4.23;;;;;;;;;;5054106;28;20206;-81
2022/12/30 09:15:42;;;;;;;8.00;5.83;;;;;;;;;;5053480;28;20724;-79
2022/12/30 09:18:09;;;;;;;11.93;4.60;;;;;;;;;;5053627;28;20243;-81
2022/12/30 09:20:36;;;;;;;10.80;4.57;;;;;;;;;;5053190;28;20237;-79
2022/12/30 09:23:03;;;;;;;25.73;12.30;;;;;;;;;;5053399;28;20230;-81
2022/12/30 09:25:30;;;;;;;8.97;5.70;;;;;;;;;;5046318;28;20261;-80
2022/12/30 09:27:57;;;;;;;8.73;5.30;;;;;;;;;;5033559;28;20207;-80
2022/12/30 09:30:24;;;;;;;4.00;3.40;;;;;;;;;;5033140;28;20254;-80
2022/12/30 09:32:53;;;;;;;5.80;4.70;;;;;;;;;;5033599;28;20659;-82
2022/12/30 09:35:20;;;;;;;8.00;6.47;;;;;;;;;;5032996;28;20218;-81
2022/12/30 09:37:48;;;;;;;2.83;2.63;;;;;;;;;;5033559;28;20260;-81
2022/12/30 09:40:15;;;;;;;8.10;6.00;;;;;;;;;;5063477;23;20749;-81
2022/12/30 09:45:30;;;;;;;5.00;3.50;;;;;;;;;;5052997;28;20275;-81
2022/12/30 09:48:00;;;;;;;5.50;3.60;;;;;;;;;;5052890;28;20669;-81
2022/12/30 09:50:32;;;;;;;3.47;3.17;;;;;;;;;;5063948;28;20237;-80
2022/12/30 09:53:03;;;;;;;5.03;3.20;;;;;;;;;;5074327;28;20201;-80
2022/12/30 09:55:32;;;;;;;5.27;3.40;;;;;;;;;;5072122;28;20264;-80
2022/12/30 09:58:00;;;;;;;7.43;4.50;;;;;;;;;;5078741;28;20204;-79
2022/12/30 10:00:30;;;;;;;5.73;3.33;;;;;;;;;;5073934;28;20237;-81
2022/12/30 10:03:03;;;;;;;3.63;2.87;;;;;;;;;;5053003;28;20667;-79
2022/12/30 10:05:46;;;;;;;3.00;2.63;;;;;;;;;;5052808;28;20233;-79
2022/12/30 10:08:19;;;;;;;2.37;2.17;;;;;;;;;;5052498;28;20697;-79
2022/12/30 10:10:48;;;;;;;1.70;1.60;;;;;;;;;;5053017;28;20253;-79
2022/12/30 10:13:19;;;;;;;2.53;1.90;;;;;;;;;;5053328;28;20225;-80
2022/12/30 10:15:51;;;;;;;1.77;1.67;;;;;;;;;;5053162;28;20230;-80
2022/12/30 10:18:37;;;;;;;2.43;1.87;;;;;;;;;;5052867;28;20279;-79
2022/12/30 10:21:09;;;;;;;1.70;1.60;;;;;;;;;;5051947;28;20237;-79
2022/12/30 10:23:45;;;;;;;1.60;1.50;;;;;;;;;;5053009;28;20230;-80
2022/12/30 10:26:13;;;;;;;2.23;1.90;;;;;;;;;;5063846;28;20229;-80
2022/12/30 10:28:43;;;;;;;4.13;1.90;;;;;;;;;;5072221;28;20281;-80
2022/12/30 10:31:16;;;;;;;1.60;1.53;;;;;;;;;;5072005;28;20237;-80
2022/12/30 10:33:43;;;;;;;1.93;1.70;;;;;;;;;;5072434;28;20201;-80
2022/12/30 10:36:15;;;;;;;1.90;1.73;;;;;;;;;;5071259;28;20507;-80
2022/12/30 10:38:42;;;;;;;3.63;2.90;;;;;;;;;;5071418;28;20231;-79
2022/12/30 10:41:16;;;;;;;2.10;1.60;;;;;;;;;;5071850;28;20653;-80
2022/12/30 10:43:49;;;;;;;2.57;1.70;;;;;;;;;;5071553;28;20239;-80
2022/12/30 10:46:21;;;;;;;2.27;1.90;;;;;;;;;;5071112;28;20240;-80
2022/12/30 10:48:57;;;;;;;4.40;2.20;;;;;;;;;;5071454;28;20211;-80
2022/12/30 10:51:26;;;;;;;2.60;2.00;;;;;;;;;;5070952;28;20671;-80
2022/12/30 10:53:54;;;;;;;2.07;1.97;;;;;;;;;;5071677;28;20202;-80
2022/12/30 10:56:23;;;;;;;2.17;1.70;;;;;;;;;;5071088;28;20229;-79
2022/12/30 10:58:50;;;;;;;2.43;2.20;;;;;;;;;;5071003;28;20201;-80
2022/12/30 11:01:19;;;;;;;2.27;1.70;;;;;;;;;;5064529;28;20242;-80
2022/12/30 11:03:48;;;;;;;3.47;2.00;;;;;;;;;;5071943;28;20256;-80
2022/12/30 11:06:20;;;;;;;5.43;2.00;;;;;;;;;;5071504;28;20255;-79
2022/12/30 11:08:48;;;;;;;2.53;2.03;;;;;;;;;;5070670;28;20205;-80
2022/12/30 11:11:16;;;;;;;2.40;2.20;;;;;;;;;;5070796;28;20256;-80
2022/12/30 11:16:29;;;;;;;5.10;1.60;;;;;;;;;;5070817;28;20310;-79
2022/12/30 11:18:57;;;;;;;2.50;1.70;;;;;;;;;;5060123;28;20209;-79
2022/12/30 11:21:25;;;;;;;1.97;1.80;;;;;;;;;;5050564;28;20616;-80
2022/12/30 11:23:55;;;;;;;1.67;1.57;;;;;;;;;;5051028;28;20249;-80
2022/12/30 11:26:23;;;;;;;3.13;1.60;;;;;;;;;;5050352;28;21235;-79
2022/12/30 11:28:52;;;;;;;5.27;1.70;;;;;;;;;;5050942;28;20221;-80
2022/12/30 11:31:19;;;;;;;1.70;1.60;;;;;;;;;;5050921;28;20253;-80
2022/12/30 11:33:48;;;;;;;6.50;2.10;;;;;;;;;;5051466;28;20209;-80
2022/12/30 11:36:17;;;;;;;3.93;1.73;;;;;;;;;;5050463;28;20229;-80
2022/12/30 11:38:45;;;;;;;1.77;1.70;;;;;;;;;;5050821;28;20263;-80
2022/12/30 11:41:21;;;;;;;2.03;1.60;;;;;;;;;;5050234;28;20244;-80
2022/12/30 11:43:49;;;;;;;4.13;1.70;;;;;;;;;;5050815;28;20229;-80
2022/12/30 11:46:18;;;;;;;2.10;1.90;;;;;;;;;;5050330;28;20234;-80
2022/12/30 11:48:47;;;;;;;1.83;1.40;;;;;;;;;;5050895;28;20206;-80
2022/12/30 11:51:17;;;;;;;1.37;1.33;;;;;;;;;;5050174;28;20253;-81
2022/12/30 11:53:45;;;;;;;3.50;1.60;;;;;;;;;;5050841;28;20209;-81
2022/12/30 11:56:12;;;;;;;3.67;1.67;;;;;;;;;;5050607;28;20241;-80
2022/12/30 11:58:42;;;;;;;2.53;1.70;;;;;;;;;;5050593;28;20209;-80
2022/12/30 12:01:11;;;;;;;3.00;1.60;;;;;;;;;;5050401;28;20323;-80
2022/12/30 12:03:47;;;;;;;2.97;1.63;;;;;;;;;;5051015;28;20260;-80
2022/12/30 12:06:14;;;;;;;2.50;1.90;;;;;;;;;;5050209;28;20263;-81
2022/12/30 12:08:46;;;;;;;1.50;1.40;;;;;;;;;;5050621;28;20217;-81
2022/12/30 12:11:17;;;;;;;2.23;1.23;;;;;;;;;;5050082;28;20756;-79
2022/12/30 12:13:48;;;;;;;1.27;1.20;;;;;;;;;;5054229;28;20679;-79
2022/12/30 12:16:17;;;;;;;1.67;1.60;;;;;;;;;;5053904;28;20245;-79
2022/12/30 12:18:44;;;;;;;1.57;1.47;;;;;;;;;;5054612;28;20519;-79
2022/12/30 12:21:19;;;;;;;2.63;1.57;;;;;;;;;;5073482;28;20244;-79
2022/12/30 12:23:48;;;;;;;3.63;2.50;;;;;;;;;;5074135;28;20700;-79
2022/12/30 12:26:18;;;;;;;2.90;1.60;;;;;;;;;;5073588;28;20229;-79
2022/12/30 12:28:46;;;;;;;1.30;1.30;;;;;;;;;;5074244;28;20205;-80
2022/12/30 12:31:28;;;;;;;1.53;1.43;;;;;;;;;;5069196;28;20230;-80
2022/12/30 12:33:59;;;;;;;3.90;2.53;;;;;;;;;;5053962;28;20190;-79
2022/12/30 12:36:29;;;;;;;1.83;1.57;;;;;;;;;;5053741;28;20234;-80
2022/12/30 12:39:01;;;;;;;4.53;1.73;;;;;;;;;;5054054;28;20202;-80
2022/12/30 12:41:46;;;;;;;1.43;1.33;;;;;;;;;;5053509;28;20230;-80
2022/12/30 12:44:21;;;;;;;2.27;1.50;;;;;;;;;;5054703;28;20229;-80
2022/12/30 12:46:58;;;;;;;1.73;1.63;;;;;;;;;;5053430;28;20237;-80
2022/12/30 12:49:43;;;;;;;1.80;1.30;;;;;;;;;;5053411;28;20209;-79
2022/12/30 12:52:14;;;;;;;2.47;2.00;;;;;;;;;;5056967;28;20258;-80
2022/12/30 12:54:54;;;;;;;3.17;1.67;;;;;;;;;;5074417;28;20190;-80
2022/12/30 12:57:25;;;;;;;4.03;1.80;;;;;;;;;;5073257;28;20286;-79
2022/12/30 13:00:00;;;;;;;2.17;1.80;;;;;;;;;;5073587;28;20240;-79
2022/12/30 13:02:44;;;;;;;2.70;1.70;;;;;;;;;;5073448;28;20217;-80
2022/12/30 13:05:15;;;;;;;2.90;1.60;;;;;;;;;;5073528;28;20284;-79
2022/12/30 13:07:46;;;;;;;5.57;2.23;;;;;;;;;;5073655;28;20212;-79
2022/12/30 13:10:20;;;;;;;3.53;1.73;;;;;;;;;;5072975;28;20225;-79
2022/12/30 13:12:49;;;;;;;2.93;2.23;;;;;;;;;;5073602;28;20192;-80
2022/12/30 13:15:22;;;;;;;4.03;2.47;;;;;;;;;;5073288;28;20197;-80
2022/12/30 13:17:52;;;;;;;3.50;2.23;;;;;;;;;;5073222;28;20206;-79
2022/12/30 13:20:20;;;;;;;2.70;2.43;;;;;;;;;;5065208;28;20232;-79
2022/12/30 13:22:49;;;;;;;1.80;1.70;;;;;;;;;;5072743;28;20201;-80
2022/12/30 13:25:19;;;;;;;1.77;1.70;;;;;;;;;;5059123;28;20598;-80
2022/12/30 13:27:47;;;;;;;2.73;1.50;;;;;;;;;;5068525;28;20248;-80
2022/12/30 13:30:14;;;;;;;2.00;1.80;;;;;;;;;;5072938;28;20230;-80
2022/12/30 13:32:46;;;;;;;2.17;2.00;;;;;;;;;;5073451;28;20213;-79
2022/12/30 13:35:21;;;;;;;2.07;1.87;;;;;;;;;;5072238;28;20194;-78
2022/12/30 13:37:55;;;;;;;1.97;1.80;;;;;;;;;;5072790;28;20292;-78
2022/12/30 13:40:23;;;;;;;1.93;1.83;;;;;;;;;;5072219;28;20233;-78
2022/12/30 13:43:01;;;;;;;2.30;2.20;;;;;;;;;;5072929;28;20217;-79
2022/12/30 13:45:29;;;;;;;2.17;1.77;;;;;;;;;;5071127;28;20582;-78
2022/12/30 13:48:01;;;;;;;2.80;1.80;;;;;;;;;;5083523;28;20570;-78
2022/12/30 13:50:31;;;;;;;2.47;1.73;;;;;;;;;;5092431;28;20240;-78
2022/12/30 13:52:58;;;;;;;2.40;2.20;;;;;;;;;;5093051;28;20212;-79
2022/12/30 13:55:28;;;;;;;1.90;1.80;;;;;;;;;;5076916;28;20653;-80
2022/12/30 13:57:59;;;;;;;3.23;2.20;;;;;;;;;;5072169;28;20693;-79
2022/12/30 14:00:28;;;;;;;2.70;2.50;;;;;;;;;;5072150;28;20312;-79
2022/12/30 14:02:59;;;;;;;2.90;2.00;;;;;;;;;;5072652;28;20189;-80
2022/12/30 14:05:47;;;;;;;2.03;1.90;;;;;;;;;;5065482;28;20240;-80
2022/12/30 14:08:22;;;;;;;1.73;1.63;;;;;;;;;;5064106;28;20217;-80
2022/12/30 14:10:54;;;;;;;2.07;1.97;;;;;;;;;;5053658;28;20610;-80
2022/12/30 14:13:34;;;;;;;2.13;1.93;;;;;;;;;;5057677;28;20210;-79
2022/12/30 14:16:03;;;;;;;2.07;1.60;;;;;;;;;;5051675;28;20701;-80
2022/12/30 14:18:36;;;;;;;1.87;1.40;;;;;;;;;;5051858;28;20205;-79
2022/12/30 14:21:05;;;;;;;2.00;1.90;;;;;;;;;;5063036;28;20324;-80
2022/12/30 14:23:44;;;;;;;1.83;1.70;;;;;;;;;;5072127;28;20678;-80
2022/12/30 14:26:30;;;;;;;2.73;1.40;;;;;;;;;;5071722;28;20697;-80
2022/12/30 14:28:59;;;;;;;1.57;1.40;;;;;;;;;;5071994;28;20205;-79
2022/12/30 14:31:27;;;;;;;3.97;1.70;;;;;;;;;;5066190;28;20694;-80
2022/12/30 14:33:56;;;;;;;4.40;1.90;;;;;;;;;;5052082;28;20213;-80
2022/12/30 14:36:24;;;;;;;2.07;1.43;;;;;;;;;;5050959;28;20299;-80
2022/12/30 14:38:58;;;;;;;2.83;1.80;;;;;;;;;;5052089;28;20279;-80
2022/12/30 14:41:26;;;;;;;1.53;1.43;;;;;;;;;;5071069;28;20248;-80
2022/12/30 14:43:54;;;;;;;1.93;1.83;;;;;;;;;;5072013;28;20209;-79
2022/12/30 14:46:51;;;;;;;1.60;1.50;;;;;;;;;;5071106;28;20233;-80
2022/12/30 14:49:20;;;;;;;1.60;1.50;;;;;;;;;;5070505;28;20206;-80
2022/12/30 14:51:48;;;;;;;1.37;1.30;;;;;;;;;;5071223;28;20229;-80
2022/12/30 14:54:18;;;;;;;1.60;1.50;;;;;;;;;;5071763;28;20270;-80
2022/12/30 14:56:47;;;;;;;2.00;1.90;;;;;;;;;;5071338;28;20286;-80
2022/12/30 14:59:15;;;;;;;1.90;1.80;;;;;;;;;;5051917;28;20205;-80
2022/12/30 15:01:44;;;;;;;2.27;1.83;;;;;;;;;;5051065;28;20245;-80
2022/12/30 15:04:11;;;;;;;1.90;1.80;;;;;;;;;;5051178;28;20771;-80
2022/12/30 15:06:40;;;;;;;1.77;1.57;;;;;;;;;;5050929;28;20240;-79
2022/12/30 15:09:09;;;;;;;1.17;1.17;;;;;;;;;;5060346;28;20263;-79
2022/12/30 15:11:38;;;;;;;2.37;2.17;;;;;;;;;;5074064;28;20627;-79
2022/12/30 15:14:13;;;;;;;1.70;1.60;;;;;;;;;;5052038;28;20206;-80
2022/12/30 15:16:40;;;;;;;2.73;2.10;;;;;;;;;;5057432;28;20232;-79
2022/12/30 15:19:21;;;;;;;3.03;2.83;;;;;;;;;;5071270;28;20209;-79
2022/12/30 15:21:49;;;;;;;3.97;3.67;;;;;;;;;;5072420;28;20240;-80
2022/12/30 15:24:18;;;;;;;5.37;3.10;;;;;;;;;;5076733;28;20201;-80
2022/12/30 15:26:51;;;;;;;3.80;3.50;;;;;;;;;;5068609;28;20240;-80
2022/12/30 15:29:19;;;;;;;13.70;9.33;;;;;;;;;;5085103;28;20197;-80
2022/12/30 15:31:49;;;;;;;4.77;3.13;;;;;;;;;;5091087;28;20240;-81
2022/12/30 15:34:18;;;;;;;5.80;4.57;;;;;;;;;;5091287;28;20204;-79
2022/12/30 15:36:45;;;;;;;5.67;3.80;;;;;;;;;;5089553;28;20259;-81
2022/12/30 15:39:15;;;;;;;6.20;3.00;;;;;;;;;;5071056;28;20214;-81
2022/12/30 15:41:43;;;;;;;16.17;10.50;;;;;;;;;;5071243;28;20255;-78
2022/12/30 15:44:14;;;;;;;11.93;8.77;;;;;;;;;;5070930;28;20209;-78
2022/12/30 15:46:47;;;;;;;3.33;3.03;;;;;;;;;;5068738;28;20732;-79
2022/12/30 15:49:18;;;;;;;9.83;5.47;;;;;;;;;;5054709;28;20202;-78
2022/12/30 15:51:46;;;;;;;13.33;9.37;;;;;;;;;;5056323;28;20316;-78
2022/12/30 15:54:22;;;;;;;4.40;3.70;;;;;;;;;;5067659;28;20210;-78